createdAt,value
2022-11-17T00:04:40.678Z,3.30
2022-11-17T00:09:42.397Z,3.13
2022-11-17T00:14:47.070Z,3.93
2022-11-17T00:20:07.514Z,4.30
2022-11-17T00:25:09.446Z,3.80
2022-11-17T00:30:31.512Z,4.80
2022-11-17T00:35:33.256Z,4.33
2022-11-17T00:40:34.974Z,4.50
2022-11-17T00:45:36.950Z,5.00
2022-11-17T00:50:38.708Z,5.67
2022-11-17T00:55:40.399Z,5.97
2022-11-17T01:00:42.280Z,5.57
2022-11-17T01:05:43.927Z,6.07
2022-11-17T01:10:45.666Z,6.17
2022-11-17T01:15:47.366Z,7.47
2022-11-17T01:20:49.131Z,6.33
2022-11-17T01:25:51.104Z,6.77
2022-11-17T01:31:03.630Z,7.33
2022-11-17T01:36:11.980Z,7.13
2022-11-17T01:41:16.482Z,7.23
2022-11-17T01:46:37.397Z,7.87
2022-11-17T01:51:46.229Z,9.03
2022-11-17T01:56:49.785Z,9.27
2022-11-17T02:01:58.362Z,8.73
2022-11-17T02:07:07.943Z,9.10
2022-11-17T02:12:11.555Z,10.17
2022-11-17T02:17:14.434Z,10.10
2022-11-17T02:22:34.291Z,10.20
2022-11-17T02:28:13.387Z,10.23
2022-11-17T02:33:27.450Z,10.03
2022-11-17T02:38:42.630Z,9.60
2022-11-17T02:44:06.451Z,9.80
2022-11-17T02:49:27.952Z,9.43
2022-11-17T02:54:30.983Z,9.10
2022-11-17T02:59:38.078Z,10.30
2022-11-17T03:04:49.902Z,10.30
2022-11-17T03:10:04.184Z,9.93
2022-11-17T03:15:38.709Z,9.27
2022-11-17T03:21:13.483Z,11.40
2022-11-17T03:26:21.374Z,10.77
2022-11-17T03:31:24.029Z,11.30
2022-11-17T03:36:36.936Z,11.57
2022-11-17T03:41:42.447Z,10.17
2022-11-17T03:46:44.865Z,11.63
2022-11-17T03:51:46.763Z,11.60
2022-11-17T03:56:55.901Z,12.57
2022-11-17T04:01:57.946Z,11.53
2022-11-17T04:06:59.709Z,11.60
2022-11-17T04:12:23.133Z,11.17
2022-11-17T04:17:24.744Z,12.50
2022-11-17T04:22:26.697Z,12.00
2022-11-17T04:27:47.078Z,12.10
2022-11-17T04:32:48.946Z,12.10
2022-11-17T04:37:50.581Z,12.57
2022-11-17T04:42:52.859Z,11.30
2022-11-17T04:47:54.680Z,12.30
2022-11-17T04:52:56.360Z,10.27
2022-11-17T04:57:58.020Z,10.50
2022-11-17T05:02:59.702Z,10.57
2022-11-17T05:08:02.794Z,10.43
2022-11-17T05:13:26.956Z,11.00
2022-11-17T05:18:31.393Z,11.37
2022-11-17T05:23:52.085Z,10.33
2022-11-17T05:28:55.561Z,11.30
2022-11-17T05:33:59.126Z,10.73
2022-11-17T05:39:01.119Z,11.23
2022-11-17T05:44:03.743Z,10.33
2022-11-17T05:49:05.586Z,10.53
2022-11-17T05:54:07.502Z,10.23
2022-11-17T05:59:27.311Z,11.63
2022-11-17T06:04:29.865Z,10.67
2022-11-17T06:09:36.827Z,10.57
2022-11-17T06:14:39.724Z,10.43
2022-11-17T06:19:44.356Z,9.40
2022-11-17T06:24:46.288Z,9.40
2022-11-17T06:29:48.392Z,10.73
2022-11-17T06:34:55.746Z,9.77
2022-11-17T06:39:57.694Z,8.93
2022-11-17T06:44:59.341Z,8.80
2022-11-17T06:50:01.217Z,22.53
2022-11-17T06:55:02.957Z,9.17
2022-11-17T07:00:06.365Z,6.70
2022-11-17T07:05:08.535Z,7.13
2022-11-17T07:10:10.727Z,7.03
2022-11-17T07:15:12.656Z,6.33
2022-11-17T07:20:15.403Z,5.83
2022-11-17T07:25:22.294Z,5.40
2022-11-17T07:30:24.319Z,5.40
2022-11-17T07:35:26.192Z,5.57
2022-11-17T07:40:29.403Z,5.50
2022-11-17T07:45:32.249Z,5.33
2022-11-17T07:50:34.582Z,6.87
2022-11-17T07:55:36.455Z,5.47
2022-11-17T08:00:38.313Z,5.40
2022-11-17T08:05:43.588Z,5.40
2022-11-17T08:10:45.771Z,5.10
2022-11-17T08:15:47.633Z,5.87
2022-11-17T08:20:49.475Z,5.50
2022-11-17T08:25:51.222Z,5.17
2022-11-17T08:30:53.915Z,5.80
2022-11-17T08:35:59.438Z,6.00
2022-11-17T08:41:06.762Z,5.57
2022-11-17T08:46:12.392Z,6.10
2022-11-17T08:51:15.026Z,7.33
2022-11-17T08:56:16.654Z,6.13
2022-11-17T09:01:18.494Z,5.47
2022-11-17T09:06:20.398Z,5.53
2022-11-17T09:11:22.132Z,5.47
2022-11-17T09:16:25.250Z,6.67
2022-11-17T09:21:27.271Z,5.27
2022-11-17T09:26:29.006Z,4.63
2022-11-17T09:31:30.981Z,5.13
2022-11-17T09:36:33.180Z,4.77
2022-11-17T09:41:43.328Z,5.83
2022-11-17T09:47:12.972Z,5.63
2022-11-17T09:52:41.026Z,5.90
2022-11-17T09:57:46.459Z,6.33
2022-11-17T10:02:49.625Z,7.07
2022-11-17T10:07:53.437Z,7.83
2022-11-17T10:12:57.757Z,9.97
2022-11-17T10:17:59.662Z,13.13
2022-11-17T10:23:02.076Z,21.57
2022-11-17T10:28:08.746Z,21.43
2022-11-17T10:33:13.399Z,14.47
2022-11-17T10:38:18.063Z,17.53
2022-11-17T10:43:28.559Z,13.07
2022-11-17T10:48:36.295Z,16.70
2022-11-17T10:53:45.532Z,15.07
2022-11-17T10:58:58.955Z,15.13
2022-11-17T11:04:01.491Z,11.33
2022-11-17T11:09:16.257Z,7.97
2022-11-17T11:14:39.713Z,6.80
2022-11-17T11:19:54.125Z,6.60
2022-11-17T11:25:29.015Z,6.53
2022-11-17T11:30:57.353Z,6.37
2022-11-17T11:36:17.038Z,7.13
2022-11-17T11:41:21.609Z,7.77
2022-11-17T11:47:05.338Z,8.03
2022-11-17T11:52:15.638Z,5.73
2022-11-17T11:57:20.127Z,4.97
2022-11-17T12:02:29.396Z,5.13
2022-11-17T12:07:38.253Z,5.17
2022-11-17T12:12:40.657Z,5.33
2022-11-17T12:18:04.090Z,4.93
2022-11-17T12:23:24.148Z,5.07
2022-11-17T12:28:38.072Z,4.67
2022-11-17T12:33:52.197Z,4.50
2022-11-17T12:38:55.868Z,4.80
2022-11-17T12:44:36.002Z,4.77
2022-11-17T12:49:44.336Z,4.80
2022-11-17T12:54:56.851Z,4.30
2022-11-17T13:00:21.755Z,5.53
2022-11-17T13:05:25.962Z,4.13
2022-11-17T13:10:31.085Z,3.57
2022-11-17T13:15:32.851Z,3.50
2022-11-17T13:20:34.761Z,3.40
2022-11-17T13:25:36.610Z,4.87
2022-11-17T13:30:38.817Z,3.10
2022-11-17T13:35:40.713Z,3.57
2022-11-17T13:40:43.259Z,4.10
2022-11-17T13:45:47.040Z,3.03
2022-11-17T13:50:49.112Z,2.87
2022-11-17T13:55:52.003Z,3.47
2022-11-17T14:00:56.010Z,3.60
2022-11-17T14:05:57.810Z,3.03
2022-11-17T14:11:11.469Z,3.30
2022-11-17T14:16:29.719Z,4.47
2022-11-17T14:21:32.850Z,3.33
2022-11-17T14:26:34.570Z,2.47
2022-11-17T14:31:42.295Z,3.00
2022-11-17T14:36:44.214Z,2.10
2022-11-17T14:41:47.505Z,2.77
2022-11-17T14:46:49.132Z,2.67
2022-11-17T14:51:51.127Z,2.57
2022-11-17T14:56:52.769Z,1.90
2022-11-17T15:01:54.503Z,3.40
2022-11-17T15:06:57.204Z,2.40
2022-11-17T15:11:59.074Z,2.77
2022-11-17T15:17:00.752Z,4.07
2022-11-17T15:22:02.715Z,3.00
2022-11-17T15:27:04.530Z,3.30
2022-11-17T15:32:07.633Z,2.93
2022-11-17T15:37:09.364Z,2.73
2022-11-17T15:42:11.248Z,2.63
2022-11-17T15:47:12.982Z,2.10
2022-11-17T15:52:14.742Z,1.87
2022-11-17T15:57:16.354Z,1.50
2022-11-17T16:02:18.166Z,1.50
2022-11-17T16:07:19.914Z,2.40
2022-11-17T16:12:21.578Z,3.03
2022-11-17T16:17:23.347Z,3.70
2022-11-17T16:22:25.038Z,4.87
2022-11-17T16:27:26.741Z,6.87
2022-11-17T16:32:28.440Z,8.03
2022-11-17T16:37:30.081Z,7.07
2022-11-17T16:42:32.528Z,6.67
2022-11-17T16:47:35.074Z,6.37
2022-11-17T16:52:36.767Z,6.83
2022-11-17T16:57:38.417Z,8.97
2022-11-17T17:02:40.133Z,9.07
2022-11-17T17:07:41.904Z,12.20
2022-11-17T17:12:43.577Z,8.43
2022-11-17T17:17:45.384Z,6.27
2022-11-17T17:22:47.047Z,5.13
2022-11-17T17:27:48.685Z,5.57
2022-11-17T17:32:50.558Z,5.10
2022-11-17T17:37:52.237Z,5.43
2022-11-17T17:42:53.977Z,7.60
2022-11-17T17:47:55.644Z,30.93
2022-11-17T17:52:57.366Z,7.83
2022-11-17T17:57:59.251Z,7.67
2022-11-17T18:03:01.127Z,7.43
2022-11-17T18:08:04.735Z,7.37
2022-11-17T18:13:10.671Z,17.10
2022-11-17T18:18:14.045Z,7.23
2022-11-17T18:23:15.712Z,7.80
2022-11-17T18:28:17.569Z,7.27
2022-11-17T18:33:22.203Z,11.43
2022-11-17T18:38:23.907Z,6.50
2022-11-17T18:43:25.581Z,11.30
2022-11-17T18:48:31.338Z,9.07
2022-11-17T18:53:33.525Z,12.13
2022-11-17T18:58:35.658Z,11.23
2022-11-17T19:35:59.773Z,6.27
2022-11-17T19:47:00.605Z,10.80
2022-11-17T19:52:02.241Z,7.13
2022-11-17T19:57:04.136Z,7.80
2022-11-17T20:03:07.162Z,10.07
2022-11-17T20:07:43.494Z,5.63
2022-11-17T20:12:46.361Z,6.80
2022-11-17T20:17:48.240Z,6.83
2022-11-17T20:22:49.981Z,6.40
2022-11-17T20:27:51.933Z,6.37
2022-11-17T20:32:53.634Z,6.60
2022-11-17T20:38:07.263Z,6.23
2022-11-17T20:43:09.546Z,8.30
2022-11-17T20:48:11.172Z,5.30
2022-11-17T20:53:12.941Z,6.83
2022-11-17T20:58:14.645Z,7.03
2022-11-17T21:03:16.523Z,6.73
2022-11-17T21:08:18.607Z,6.97
2022-11-17T21:13:20.298Z,8.47
2022-11-17T21:18:24.957Z,10.70
2022-11-17T21:23:52.730Z,9.73
2022-11-17T21:28:52.957Z,10.03
2022-11-17T21:34:08.024Z,9.47
2022-11-17T21:39:16.398Z,8.77
2022-11-17T21:44:18.419Z,7.77
2022-11-17T21:49:20.025Z,24.53
2022-11-17T21:59:36.749Z,8.63
2022-11-17T22:04:38.364Z,10.37
2022-11-17T22:09:40.013Z,9.30
2022-11-17T22:14:41.625Z,9.27
2022-11-17T22:19:43.300Z,8.93
2022-11-17T22:24:49.574Z,8.17
2022-11-17T22:29:54.620Z,6.93
2022-11-17T22:34:56.266Z,6.80
2022-11-17T22:39:57.858Z,5.80
2022-11-17T22:44:59.503Z,6.93
2022-11-17T22:50:01.105Z,6.43
2022-11-17T22:55:02.975Z,6.60
2022-11-17T23:00:05.737Z,6.37
2022-11-17T23:05:07.488Z,6.20
2022-11-17T23:10:09.824Z,5.73
2022-11-17T23:15:12.331Z,5.60
2022-11-17T23:20:14.432Z,6.90
2022-11-17T23:25:16.289Z,6.23
2022-11-17T23:30:17.997Z,5.97
2022-11-17T23:35:22.235Z,6.23
2022-11-17T23:40:24.223Z,5.40
2022-11-17T23:45:25.831Z,5.47
2022-11-17T23:50:27.493Z,5.83
2022-11-17T23:55:29.141Z,5.10
